TAM3880 SBGR-SBRP
Flight info
| Callsign | TAM3880 |
|---|---|
| Flight time | 0h 36m |
| Altitude | 26000 |
| Route | GERTU UZ25 KOMTO |
| Aircraft | A320/M-SDE3FGHIRWY/LB1 |
Departure
| Time | 2026-04-16 22:24 |
|---|---|
| Airport | São Paulo/Guarulhos–Governor André Franco Montoro International Airport (SBGR) |
Arrival
| Time | 2026-04-16 23:00 |
|---|---|
| Airport | Leite Lopes Airport (SBRP) |
| Time | Latitude | Longitude | Altitude | Speed | Heading |
|---|---|---|---|---|---|
| 2026-04-16 21:53 | -23.42745 | -46.48069 | 2461 ft | 0 kts | 84° |
| 2026-04-16 22:16 | -23.42745 | -46.48073 | 2461 ft | 3 kts | 84° |
| 2026-04-16 22:16 | -23.42748 | -46.48102 | 2464 ft | 4 kts | 85° |
| 2026-04-16 22:17 | -23.42748 | -46.48131 | 2464 ft | 4 kts | 101° |
| 2026-04-16 22:17 | -23.42739 | -46.48152 | 2461 ft | 2 kts | 147° |
| 2026-04-16 22:17 | -23.42752 | -46.48144 | 2465 ft | 4 kts | 154° |
| 2026-04-16 22:17 | -23.42778 | -46.48136 | 2461 ft | 4 kts | 169° |
| 2026-04-16 22:18 | -23.42795 | -46.48134 | 2461 ft | 0 kts | 174° |
| 2026-04-16 22:19 | -23.42791 | -46.48135 | 2461 ft | 2 kts | 174° |
| 2026-04-16 22:19 | -23.42789 | -46.48135 | 2461 ft | 0 kts | 174° |
| 2026-04-16 22:22 | -23.42803 | -46.48134 | 2461 ft | 5 kts | 174° |
| 2026-04-16 22:22 | -23.42893 | -46.48127 | 2468 ft | 20 kts | 182° |
| 2026-04-16 22:22 | -23.43041 | -46.48133 | 2461 ft | 18 kts | 173° |
| 2026-04-16 22:22 | -23.43160 | -46.48113 | 2463 ft | 14 kts | 164° |
| 2026-04-16 22:23 | -23.43256 | -46.48079 | 2465 ft | 15 kts | 162° |
| 2026-04-16 22:23 | -23.43340 | -46.48020 | 2462 ft | 15 kts | 95° |
| 2026-04-16 22:23 | -23.43324 | -46.47952 | 2461 ft | 6 kts | 71° |
| 2026-04-16 22:23 | -23.43289 | -46.47832 | 2461 ft | 45 kts | 72° |
| 2026-04-16 22:24 | -23.43136 | -46.47244 | 2460 ft | 114 kts | 75° |
| 2026-04-16 22:24 | -23.42853 | -46.46219 | 2463 ft | 167 kts | 72° |
| 2026-04-16 22:24 | -23.42450 | -46.44964 | 2918 ft | 175 kts | 62° |
| 2026-04-16 22:24 | -23.41686 | -46.43933 | 3641 ft | 177 kts | 46° |
| 2026-04-16 22:25 | -23.40743 | -46.42985 | 4103 ft | 196 kts | 43° |
| 2026-04-16 22:25 | -23.39663 | -46.41948 | 4465 ft | 218 kts | 42° |
| 2026-04-16 22:25 | -23.38471 | -46.40792 | 4729 ft | 242 kts | 43° |
| 2026-04-16 22:25 | -23.37188 | -46.39524 | 5317 ft | 254 kts | 43° |
| 2026-04-16 22:26 | -23.35877 | -46.38152 | 5819 ft | 273 kts | 45° |
| 2026-04-16 22:26 | -23.34504 | -46.36649 | 6594 ft | 279 kts | 46° |
| 2026-04-16 22:26 | -23.33158 | -46.35150 | 7418 ft | 282 kts | 46° |
| 2026-04-16 22:26 | -23.31784 | -46.33612 | 8236 ft | 285 kts | 46° |
| 2026-04-16 22:27 | -23.30389 | -46.32053 | 9035 ft | 289 kts | 45° |
| 2026-04-16 22:27 | -23.28978 | -46.30484 | 9825 ft | 292 kts | 45° |
| 2026-04-16 22:27 | -23.27532 | -46.28882 | 10389 ft | 306 kts | 45° |
| 2026-04-16 22:27 | -23.25985 | -46.27171 | 10635 ft | 329 kts | 45° |
| 2026-04-16 22:28 | -23.24349 | -46.25359 | 11120 ft | 341 kts | 45° |
| 2026-04-16 22:28 | -23.22673 | -46.23502 | 11782 ft | 347 kts | 45° |
| 2026-04-16 22:28 | -23.20972 | -46.21615 | 12477 ft | 352 kts | 45° |
| 2026-04-16 22:28 | -23.19248 | -46.19701 | 13163 ft | 356 kts | 45° |
| 2026-04-16 22:29 | -23.17502 | -46.17767 | 13839 ft | 361 kts | 45° |
| 2026-04-16 22:29 | -23.15735 | -46.15809 | 14493 ft | 364 kts | 45° |
| 2026-04-16 22:29 | -23.13910 | -46.13884 | 15148 ft | 367 kts | 37° |
| 2026-04-16 22:29 | -23.11668 | -46.12571 | 15757 ft | 368 kts | 15° |
| 2026-04-16 22:30 | -23.09141 | -46.12244 | 16360 ft | 368 kts | 353° |
| 2026-04-16 22:30 | -23.06684 | -46.12949 | 16941 ft | 367 kts | 332° |
| 2026-04-16 22:30 | -23.04612 | -46.14554 | 17533 ft | 368 kts | 315° |
| 2026-04-16 22:30 | -23.02765 | -46.16492 | 18126 ft | 370 kts | 315° |
| 2026-04-16 22:31 | -23.00917 | -46.18450 | 18699 ft | 373 kts | 315° |
| 2026-04-16 22:31 | -22.99055 | -46.20427 | 19270 ft | 376 kts | 314° |
| 2026-04-16 22:31 | -22.97181 | -46.22416 | 19824 ft | 378 kts | 314° |
| 2026-04-16 22:31 | -22.95289 | -46.24420 | 20355 ft | 381 kts | 314° |
| 2026-04-16 22:32 | -22.93379 | -46.26434 | 20874 ft | 384 kts | 314° |
| 2026-04-16 22:32 | -22.91460 | -46.28463 | 21395 ft | 387 kts | 313° |
| 2026-04-16 22:32 | -22.89761 | -46.30724 | 21895 ft | 388 kts | 302° |
| 2026-04-16 22:32 | -22.88485 | -46.33262 | 22380 ft | 390 kts | 294° |
| 2026-04-16 22:33 | -22.87313 | -46.35921 | 22878 ft | 392 kts | 294° |
| 2026-04-16 22:33 | -22.86128 | -46.38599 | 23356 ft | 395 kts | 294° |
| 2026-04-16 22:33 | -22.84931 | -46.41289 | 23816 ft | 397 kts | 295° |
| 2026-04-16 22:33 | -22.83725 | -46.43993 | 24266 ft | 400 kts | 294° |
| 2026-04-16 22:34 | -22.82512 | -46.46716 | 24698 ft | 402 kts | 294° |
| 2026-04-16 22:34 | -22.81296 | -46.49447 | 25115 ft | 404 kts | 294° |
| 2026-04-16 22:34 | -22.80066 | -46.52198 | 25526 ft | 406 kts | 294° |
| 2026-04-16 22:34 | -22.78832 | -46.54958 | 25904 ft | 408 kts | 294° |
| 2026-04-16 22:35 | -22.77595 | -46.57724 | 26001 ft | 403 kts | 294° |
| 2026-04-16 22:35 | -22.76391 | -46.60406 | 26017 ft | 392 kts | 294° |
| 2026-04-16 22:35 | -22.75205 | -46.63050 | 26026 ft | 388 kts | 294° |
| 2026-04-16 22:35 | -22.74029 | -46.65679 | 26015 ft | 387 kts | 294° |
| 2026-04-16 22:36 | -22.72857 | -46.68301 | 26018 ft | 387 kts | 294° |
| 2026-04-16 22:36 | -22.71684 | -46.70921 | 26015 ft | 386 kts | 294° |
| 2026-04-16 22:36 | -22.70513 | -46.73536 | 26018 ft | 386 kts | 294° |
| 2026-04-16 22:36 | -22.69338 | -46.76154 | 26014 ft | 386 kts | 294° |
| 2026-04-16 22:37 | -22.68163 | -46.78770 | 26018 ft | 386 kts | 294° |
| 2026-04-16 22:37 | -22.66988 | -46.81383 | 26016 ft | 386 kts | 294° |
| 2026-04-16 22:37 | -22.65812 | -46.83999 | 26016 ft | 386 kts | 294° |
| 2026-04-16 22:37 | -22.64634 | -46.86612 | 26013 ft | 386 kts | 294° |
| 2026-04-16 22:38 | -22.63457 | -46.89222 | 26012 ft | 386 kts | 294° |
| 2026-04-16 22:38 | -22.62279 | -46.91833 | 26009 ft | 386 kts | 294° |
| 2026-04-16 22:38 | -22.61101 | -46.94441 | 26006 ft | 386 kts | 294° |
| 2026-04-16 22:38 | -22.59924 | -46.97054 | 26005 ft | 386 kts | 294° |
| 2026-04-16 22:39 | -22.59148 | -46.98780 | 26003 ft | 386 kts | 294° |
| 2026-04-16 22:39 | -22.57974 | -47.01388 | 26002 ft | 386 kts | 294° |
| 2026-04-16 22:39 | -22.56797 | -47.03995 | 26000 ft | 386 kts | 294° |
| 2026-04-16 22:39 | -22.55276 | -47.07467 | 25999 ft | 385 kts | 290° |
| 2026-04-16 22:40 | -22.54719 | -47.09316 | 25999 ft | 383 kts | 284° |
| 2026-04-16 22:40 | -22.54014 | -47.12103 | 25996 ft | 384 kts | 287° |
| 2026-04-16 22:40 | -22.52821 | -47.14683 | 25995 ft | 386 kts | 304° |
| 2026-04-16 22:40 | -22.50940 | -47.16767 | 25992 ft | 391 kts | 321° |
| 2026-04-16 22:41 | -22.48590 | -47.18280 | 25992 ft | 394 kts | 328° |
| 2026-04-16 22:41 | -22.46186 | -47.19705 | 25990 ft | 394 kts | 328° |
| 2026-04-16 22:41 | -22.43778 | -47.21119 | 25989 ft | 394 kts | 328° |
| 2026-04-16 22:41 | -22.41365 | -47.22534 | 25989 ft | 395 kts | 328° |
| 2026-04-16 22:42 | -22.38947 | -47.23957 | 25997 ft | 399 kts | 328° |
| 2026-04-16 22:42 | -22.36471 | -47.25421 | 26010 ft | 413 kts | 328° |
| 2026-04-16 22:42 | -22.33914 | -47.26937 | 26009 ft | 425 kts | 328° |
| 2026-04-16 22:42 | -22.31285 | -47.28497 | 26008 ft | 436 kts | 328° |
| 2026-04-16 22:43 | -22.28597 | -47.30089 | 26000 ft | 446 kts | 328° |
| 2026-04-16 22:43 | -22.25846 | -47.31716 | 26001 ft | 455 kts | 328° |
| 2026-04-16 22:43 | -22.23042 | -47.33370 | 26000 ft | 462 kts | 328° |
| 2026-04-16 22:43 | -22.20207 | -47.35044 | 26003 ft | 467 kts | 328° |
| 2026-04-16 22:44 | -22.17339 | -47.36731 | 25999 ft | 472 kts | 329° |
| 2026-04-16 22:44 | -22.14474 | -47.38414 | 25999 ft | 477 kts | 329° |
| 2026-04-16 22:44 | -22.11513 | -47.40151 | 25999 ft | 480 kts | 329° |
| 2026-04-16 22:44 | -22.08617 | -47.41852 | 25998 ft | 481 kts | 329° |
| 2026-04-16 22:45 | -22.05671 | -47.43586 | 25999 ft | 482 kts | 329° |
| 2026-04-16 22:45 | -22.02728 | -47.45319 | 25999 ft | 482 kts | 329° |
| 2026-04-16 22:45 | -21.99790 | -47.47049 | 25995 ft | 477 kts | 329° |
| 2026-04-16 22:45 | -21.96950 | -47.48714 | 25978 ft | 453 kts | 329° |
| 2026-04-16 22:46 | -21.94228 | -47.50306 | 25733 ft | 437 kts | 329° |
| 2026-04-16 22:46 | -21.91601 | -47.51848 | 25496 ft | 423 kts | 328° |
| 2026-04-16 22:46 | -21.89058 | -47.53341 | 25274 ft | 410 kts | 328° |
| 2026-04-16 22:46 | -21.86575 | -47.54801 | 24781 ft | 405 kts | 328° |
| 2026-04-16 22:47 | -21.84111 | -47.56250 | 24219 ft | 402 kts | 328° |
| 2026-04-16 22:47 | -21.81664 | -47.57688 | 23634 ft | 400 kts | 329° |
| 2026-04-16 22:47 | -21.79236 | -47.59109 | 23085 ft | 397 kts | 329° |
| 2026-04-16 22:47 | -21.76826 | -47.60518 | 22624 ft | 392 kts | 329° |
| 2026-04-16 22:48 | -21.74432 | -47.61920 | 22146 ft | 389 kts | 329° |
| 2026-04-16 22:48 | -21.72052 | -47.63314 | 21582 ft | 388 kts | 329° |
| 2026-04-16 22:48 | -21.69691 | -47.64697 | 21064 ft | 386 kts | 329° |
| 2026-04-16 22:48 | -21.67351 | -47.66066 | 20600 ft | 382 kts | 329° |
| 2026-04-16 22:49 | -21.65016 | -47.67428 | 20120 ft | 379 kts | 330° |
| 2026-04-16 22:49 | -21.62700 | -47.68777 | 19585 ft | 378 kts | 330° |
| 2026-04-16 22:49 | -21.60374 | -47.70069 | 19107 ft | 376 kts | 336° |
| 2026-04-16 22:49 | -21.57955 | -47.71022 | 18609 ft | 374 kts | 339° |
| 2026-04-16 22:50 | -21.55508 | -47.71952 | 18106 ft | 372 kts | 339° |
| 2026-04-16 22:50 | -21.53073 | -47.72872 | 17623 ft | 370 kts | 340° |
| 2026-04-16 22:50 | -21.50658 | -47.73779 | 17147 ft | 367 kts | 340° |
| 2026-04-16 22:50 | -21.48253 | -47.74682 | 16678 ft | 365 kts | 340° |
| 2026-04-16 22:51 | -21.45859 | -47.75583 | 16211 ft | 363 kts | 340° |
| 2026-04-16 22:51 | -21.43482 | -47.76479 | 15696 ft | 362 kts | 340° |
| 2026-04-16 22:51 | -21.41118 | -47.77369 | 15268 ft | 359 kts | 340° |
| 2026-04-16 22:51 | -21.38759 | -47.78258 | 14810 ft | 357 kts | 340° |
| 2026-04-16 22:52 | -21.36420 | -47.79140 | 14302 ft | 357 kts | 340° |
| 2026-04-16 22:52 | -21.34087 | -47.80019 | 13844 ft | 355 kts | 340° |
| 2026-04-16 22:52 | -21.31768 | -47.80892 | 13409 ft | 352 kts | 340° |
| 2026-04-16 22:52 | -21.29457 | -47.81763 | 12955 ft | 350 kts | 340° |
| 2026-04-16 22:53 | -21.27160 | -47.82628 | 12428 ft | 349 kts | 340° |
| 2026-04-16 22:53 | -21.24875 | -47.83487 | 11959 ft | 347 kts | 340° |
| 2026-04-16 22:53 | -21.22601 | -47.84342 | 11489 ft | 345 kts | 340° |
| 2026-04-16 22:53 | -21.20339 | -47.85191 | 11012 ft | 343 kts | 340° |
| 2026-04-16 22:54 | -21.18131 | -47.86019 | 10604 ft | 339 kts | 340° |
| 2026-04-16 22:54 | -21.15904 | -47.86854 | 10116 ft | 337 kts | 340° |
| 2026-04-16 22:54 | -21.13727 | -47.87671 | 9955 ft | 325 kts | 340° |
| 2026-04-16 22:54 | -21.11650 | -47.88453 | 9964 ft | 308 kts | 340° |
| 2026-04-16 22:55 | -21.09654 | -47.89204 | 9970 ft | 302 kts | 340° |
| 2026-04-16 22:55 | -21.07677 | -47.89946 | 9972 ft | 299 kts | 340° |
| 2026-04-16 22:55 | -21.05765 | -47.90661 | 9937 ft | 285 kts | 340° |
| 2026-04-16 22:55 | -21.03865 | -47.91371 | 9224 ft | 294 kts | 341° |
| 2026-04-16 22:56 | -21.01865 | -47.91756 | 8439 ft | 294 kts | 5° |
| 2026-04-16 22:56 | -20.99951 | -47.91079 | 7658 ft | 292 kts | 36° |
| 2026-04-16 22:56 | -20.98622 | -47.89484 | 6884 ft | 289 kts | 65° |
| 2026-04-16 22:56 | -20.97971 | -47.87468 | 6122 ft | 286 kts | 74° |
| 2026-04-16 22:57 | -20.97457 | -47.85416 | 5355 ft | 284 kts | 84° |
| 2026-04-16 22:57 | -20.97740 | -47.83373 | 4600 ft | 279 kts | 117° |
| 2026-04-16 22:57 | -20.99030 | -47.81900 | 4004 ft | 269 kts | 153° |
| 2026-04-16 22:57 | -21.00702 | -47.81213 | 3821 ft | 247 kts | 163° |
| 2026-04-16 22:58 | -21.02290 | -47.80732 | 3693 ft | 226 kts | 165° |
| 2026-04-16 22:58 | -21.03753 | -47.80324 | 3579 ft | 210 kts | 165° |
| 2026-04-16 22:58 | -21.05086 | -47.79948 | 3501 ft | 188 kts | 165° |
| 2026-04-16 22:58 | -21.06314 | -47.79591 | 3186 ft | 177 kts | 165° |
| 2026-04-16 22:59 | -21.07457 | -47.79250 | 2926 ft | 165 kts | 163° |
| 2026-04-16 22:59 | -21.08534 | -47.78937 | 2681 ft | 156 kts | 164° |
| 2026-04-16 22:59 | -21.09566 | -47.78633 | 2481 ft | 153 kts | 162° |
| 2026-04-16 22:59 | -21.10576 | -47.78290 | 2258 ft | 151 kts | 160° |
| 2026-04-16 23:00 | -21.11568 | -47.77967 | 2069 ft | 151 kts | 165° |
| 2026-04-16 23:00 | -21.12580 | -47.77669 | 1879 ft | 151 kts | 163° |
| 2026-04-16 23:00 | -21.13546 | -47.77360 | 1802 ft | 132 kts | 164° |
| 2026-04-16 23:00 | -21.14149 | -47.77173 | 1802 ft | 47 kts | 163° |
| 2026-04-16 23:01 | -21.14283 | -47.77144 | 1803 ft | 13 kts | 211° |
| 2026-04-16 23:01 | -21.14294 | -47.77216 | 1801 ft | 9 kts | 281° |
| 2026-04-16 23:01 | -21.14278 | -47.77279 | 1805 ft | 10 kts | 293° |
| 2026-04-16 23:01 | -21.14199 | -47.77332 | 1802 ft | 18 kts | 344° |
| 2026-04-16 23:02 | -21.14057 | -47.77379 | 1802 ft | 23 kts | 343° |
| 2026-04-16 23:02 | -21.13897 | -47.77430 | 1805 ft | 25 kts | 343° |
| 2026-04-16 23:02 | -21.13862 | -47.77503 | 1803 ft | 7 kts | 240° |
| 2026-04-16 23:02 | -21.13883 | -47.77544 | 1802 ft | 5 kts | 211° |
| 2026-04-16 23:03 | -21.13909 | -47.77554 | 1805 ft | 3 kts | 228° |
| 2026-04-16 23:03 | -21.13915 | -47.77578 | 1805 ft | 5 kts | 254° |
| 2026-04-16 23:03 | -21.13919 | -47.77593 | 1805 ft | 0 kts | 254° |